createdAt,value
2023-05-12T00:02:46.524Z,64.05
2023-05-12T00:07:48.717Z,64.04
2023-05-12T00:12:50.923Z,64.27
2023-05-12T00:17:53.221Z,64.08
2023-05-12T00:22:55.407Z,63.69
2023-05-12T00:27:57.664Z,63.81
2023-05-12T00:32:59.837Z,64.00
2023-05-12T00:38:02.062Z,63.90
2023-05-12T00:43:04.563Z,63.70
2023-05-12T00:48:08.102Z,63.68
2023-05-12T00:53:10.764Z,63.60
2023-05-12T00:58:12.937Z,63.80
2023-05-12T01:03:15.457Z,64.02
2023-05-12T01:08:18.206Z,64.71
2023-05-12T01:13:20.470Z,64.54
2023-05-12T01:18:24.808Z,64.61
2023-05-12T01:23:36.696Z,64.82
2023-05-12T01:28:41.584Z,65.83
2023-05-12T01:33:43.944Z,64.86
2023-05-12T01:38:46.328Z,64.80
2023-05-12T01:43:48.478Z,65.32
2023-05-12T01:48:50.645Z,66.62
2023-05-12T01:53:52.834Z,65.56
2023-05-12T01:58:55.076Z,65.08
2023-05-12T02:03:57.493Z,65.11
2023-05-12T02:08:59.852Z,64.78
2023-05-12T02:14:02.109Z,65.09
2023-05-12T02:19:04.608Z,65.18
2023-05-12T02:24:07.098Z,64.97
2023-05-12T02:29:09.357Z,64.91
2023-05-12T02:34:11.596Z,65.06
2023-05-12T02:39:13.980Z,65.41
2023-05-12T02:44:17.633Z,65.47
2023-05-12T02:49:19.818Z,65.20
2023-05-12T02:54:22.211Z,65.25
2023-05-12T02:59:24.551Z,65.29
2023-05-12T03:04:26.896Z,65.48
2023-05-12T03:09:29.163Z,65.73
2023-05-12T03:14:31.343Z,65.83
2023-05-12T03:19:33.634Z,65.84
2023-05-12T03:24:37.005Z,65.94
2023-05-12T03:29:39.223Z,66.28
2023-05-12T03:34:41.439Z,66.18
2023-05-12T03:39:43.730Z,66.26
2023-05-12T03:44:45.980Z,66.35
2023-05-12T03:49:48.193Z,66.15
2023-05-12T03:54:51.035Z,65.92
2023-05-12T03:59:53.216Z,66.44
2023-05-12T04:04:55.442Z,66.54
2023-05-12T04:09:57.661Z,66.66
2023-05-12T04:14:59.888Z,66.78
2023-05-12T04:20:02.186Z,66.47
2023-05-12T04:25:04.593Z,66.64
2023-05-12T04:30:07.506Z,66.25
2023-05-12T04:35:09.968Z,66.13
2023-05-12T04:40:12.370Z,66.39
2023-05-12T04:45:14.599Z,66.22
2023-05-12T04:50:16.874Z,65.81
2023-05-12T04:55:19.378Z,65.72
2023-05-12T05:00:21.766Z,65.55
2023-05-12T05:05:24.013Z,65.37
2023-05-12T05:10:26.305Z,65.39
2023-05-12T05:15:28.524Z,65.07
2023-05-12T05:20:33.264Z,64.76
2023-05-12T05:25:35.770Z,64.35
2023-05-12T05:30:38.598Z,64.23
2023-05-12T05:35:40.966Z,64.06
2023-05-12T05:40:53.041Z,64.31
2023-05-12T05:45:57.529Z,63.76
2023-05-12T05:50:59.893Z,63.14
2023-05-12T05:56:02.325Z,63.10
2023-05-12T06:01:05.165Z,62.98
2023-05-12T06:06:07.531Z,62.48
2023-05-12T06:11:09.756Z,62.31
2023-05-12T06:16:11.945Z,62.02
2023-05-12T06:21:14.120Z,62.37
2023-05-12T06:26:16.332Z,61.53
2023-05-12T06:31:18.720Z,60.24
2023-05-12T06:36:21.035Z,59.44
2023-05-12T06:41:25.466Z,58.92
2023-05-12T06:46:27.838Z,58.25
2023-05-12T06:51:30.029Z,57.88
2023-05-12T06:56:32.303Z,57.79
2023-05-12T07:01:34.967Z,57.94
2023-05-12T07:06:37.663Z,57.15
2023-05-12T07:11:39.921Z,56.53
2023-05-12T07:16:42.230Z,55.11
2023-05-12T07:21:44.990Z,55.14
2023-05-12T07:26:47.672Z,54.23
2023-05-12T07:31:50.460Z,55.24
2023-05-12T07:36:52.781Z,56.30
2023-05-12T07:41:55.694Z,55.30
2023-05-12T07:46:58.069Z,54.20
2023-05-12T07:52:00.536Z,53.95
2023-05-12T07:57:02.755Z,52.56
2023-05-12T08:02:05.199Z,51.69
2023-05-12T08:07:07.470Z,52.06
2023-05-12T08:12:09.724Z,51.36
2023-05-12T08:17:12.050Z,50.45
2023-05-12T08:22:14.426Z,50.05
2023-05-12T08:27:16.690Z,50.08
2023-05-12T08:32:18.926Z,49.98
2023-05-12T08:37:21.347Z,49.07
2023-05-12T08:42:37.911Z,49.35
2023-05-12T08:47:42.115Z,48.42
2023-05-12T08:52:44.646Z,48.65
2023-05-12T08:57:48.822Z,47.90
2023-05-12T09:02:54.698Z,47.24
2023-05-12T09:07:58.302Z,46.81
2023-05-12T09:13:09.333Z,47.75
2023-05-12T09:18:14.112Z,48.55
2023-05-12T09:23:20.872Z,48.34
2023-05-12T09:28:23.142Z,49.25
2023-05-12T09:33:25.844Z,49.85
2023-05-12T09:38:27.985Z,48.47
2023-05-12T09:43:30.814Z,48.30
2023-05-12T09:48:33.758Z,48.01
2023-05-12T09:53:43.175Z,47.24
2023-05-12T09:58:48.590Z,47.79
2023-05-12T10:03:59.654Z,47.04
2023-05-12T10:09:27.703Z,46.67
2023-05-12T10:14:30.625Z,47.47
2023-05-12T10:19:34.329Z,47.50
2023-05-12T10:24:38.263Z,46.97
2023-05-12T10:29:41.549Z,47.15
2023-05-12T10:34:44.611Z,45.97
2023-05-12T10:39:52.112Z,45.92
2023-05-12T10:44:56.767Z,45.00
2023-05-12T10:50:01.155Z,45.05
2023-05-12T10:55:05.033Z,44.90
2023-05-12T11:00:14.600Z,45.67
2023-05-12T11:05:17.483Z,45.21
2023-05-12T11:10:20.211Z,46.17
2023-05-12T11:15:23.707Z,45.64
2023-05-12T11:20:29.551Z,44.63
2023-05-12T11:25:33.134Z,43.90
2023-05-12T11:30:35.514Z,42.98
2023-05-12T11:35:37.752Z,43.34
2023-05-12T11:40:41.752Z,43.30
2023-05-12T11:45:46.219Z,42.46
2023-05-12T11:50:51.606Z,41.80
2023-05-12T11:55:56.356Z,40.96
2023-05-12T12:01:10.618Z,40.67
2023-05-12T12:06:12.786Z,40.31
2023-05-12T12:11:14.999Z,40.18
2023-05-12T12:16:17.381Z,40.38
2023-05-12T12:21:19.718Z,39.81
2023-05-12T12:26:23.388Z,39.37
2023-05-12T12:31:25.728Z,39.13
2023-05-12T12:36:28.025Z,38.89
2023-05-12T12:41:30.431Z,38.39
2023-05-12T12:46:33.014Z,37.84
2023-05-12T12:51:44.977Z,38.15
2023-05-12T12:56:48.575Z,38.23
2023-05-12T13:01:54.419Z,39.16
2023-05-12T13:06:56.807Z,38.99
2023-05-12T13:12:00.046Z,39.58
2023-05-12T13:17:02.941Z,39.10
2023-05-12T13:22:05.570Z,39.14
2023-05-12T13:27:09.450Z,38.20
2023-05-12T13:32:11.750Z,37.82
2023-05-12T13:37:14.003Z,37.37
2023-05-12T13:42:17.494Z,37.77
2023-05-12T13:47:19.810Z,37.13
2023-05-12T13:52:22.292Z,37.44
2023-05-12T13:57:24.480Z,37.85
2023-05-12T14:02:26.745Z,38.64
2023-05-12T14:07:29.730Z,39.23
2023-05-12T14:12:31.955Z,39.95
2023-05-12T14:17:34.216Z,40.25
2023-05-12T14:22:36.583Z,39.27
2023-05-12T14:27:38.994Z,39.45
2023-05-12T14:32:41.244Z,38.21
2023-05-12T14:37:43.512Z,37.15
2023-05-12T14:42:45.821Z,36.27
2023-05-12T14:47:48.150Z,35.81
2023-05-12T14:52:50.478Z,36.03
2023-05-12T14:57:52.851Z,35.23
2023-05-12T15:02:55.191Z,35.67
2023-05-12T15:07:57.489Z,35.76
2023-05-12T15:13:00.016Z,35.53
2023-05-12T15:18:02.238Z,35.31
2023-05-12T15:23:04.526Z,35.28
2023-05-12T15:28:07.457Z,35.56
2023-05-12T15:33:10.652Z,35.62
2023-05-12T15:38:14.139Z,35.59
2023-05-12T15:43:16.324Z,35.66
2023-05-12T15:48:18.644Z,36.15
2023-05-12T15:53:20.999Z,36.47
2023-05-12T15:58:23.216Z,36.70
2023-05-12T16:03:25.661Z,37.06
2023-05-12T16:08:28.047Z,37.81
2023-05-12T16:13:31.002Z,38.10
2023-05-12T16:18:33.190Z,38.48
2023-05-12T16:23:36.066Z,39.33
2023-05-12T16:28:38.252Z,39.69
2023-05-12T16:33:40.544Z,39.90
2023-05-12T16:38:42.923Z,40.68
2023-05-12T16:43:45.253Z,41.43
2023-05-12T16:48:47.498Z,41.67
2023-05-12T16:53:49.647Z,42.54
2023-05-12T16:58:52.211Z,42.98
2023-05-12T17:03:54.541Z,43.41
2023-05-12T17:08:56.958Z,43.81
2023-05-12T17:13:59.370Z,44.53
2023-05-12T17:24:07.701Z,45.25
2023-05-12T17:29:10.120Z,45.56
2023-05-12T17:34:12.524Z,45.98
2023-05-12T17:39:16.477Z,46.23
2023-05-12T17:44:18.856Z,46.41
2023-05-12T17:49:21.125Z,46.72
2023-05-12T17:54:23.533Z,47.06
2023-05-12T17:59:25.817Z,47.13
2023-05-12T18:04:28.503Z,47.19
2023-05-12T18:09:30.835Z,47.62
2023-05-12T18:14:33.079Z,47.64
2023-05-12T18:19:35.287Z,48.16
2023-05-12T18:24:37.586Z,48.36
2023-05-12T18:29:39.944Z,48.83
2023-05-12T18:34:46.070Z,49.19
2023-05-12T18:39:48.615Z,49.12
2023-05-12T18:44:51.099Z,49.64
2023-05-12T18:49:53.674Z,49.70
2023-05-12T18:54:55.968Z,49.89
2023-05-12T18:59:58.200Z,50.10
2023-05-12T19:05:00.483Z,50.02
2023-05-12T19:10:02.958Z,50.26
2023-05-12T19:15:05.853Z,50.40
2023-05-12T19:20:08.974Z,50.60
2023-05-12T19:25:12.148Z,50.70
2023-05-12T19:30:15.570Z,51.33
2023-05-12T19:35:18.315Z,51.11
2023-05-12T19:40:20.692Z,51.08
2023-05-12T19:45:23.484Z,50.77
2023-05-12T19:50:26.127Z,51.16
2023-05-12T19:55:28.388Z,50.90
2023-05-12T20:00:30.730Z,50.75
2023-05-12T20:05:37.768Z,50.98
2023-05-12T20:10:40.025Z,51.06
2023-05-12T20:15:43.928Z,51.24
2023-05-12T20:20:46.180Z,50.99
2023-05-12T20:25:48.448Z,51.24
2023-05-12T20:30:50.900Z,51.19
2023-05-12T20:35:53.222Z,51.08
2023-05-12T20:40:55.810Z,51.59
2023-05-12T20:45:58.090Z,51.57
2023-05-12T20:51:09.813Z,51.98
2023-05-12T20:56:13.059Z,51.78
2023-05-12T21:01:16.964Z,51.59
2023-05-12T21:06:19.151Z,51.76
2023-05-12T21:11:21.749Z,51.88
2023-05-12T21:16:23.997Z,51.76
2023-05-12T21:21:26.640Z,51.71
2023-05-12T21:26:28.825Z,52.17
2023-05-12T21:31:31.186Z,52.20
2023-05-12T21:36:33.968Z,51.96
2023-05-12T21:41:38.846Z,52.46
2023-05-12T21:46:41.170Z,52.20
2023-05-12T21:51:43.497Z,52.19
2023-05-12T21:56:45.732Z,52.56
2023-05-12T22:01:48.023Z,52.52
2023-05-12T22:06:51.172Z,52.81
2023-05-12T22:11:53.531Z,52.42
2023-05-12T22:16:56.452Z,52.29
2023-05-12T22:21:58.713Z,52.17
2023-05-12T22:27:00.960Z,52.29
2023-05-12T22:32:03.216Z,52.62
2023-05-12T22:37:05.669Z,52.63
2023-05-12T22:42:07.990Z,52.64
2023-05-12T22:47:10.236Z,52.60
2023-05-12T22:52:12.565Z,52.62
2023-05-12T22:57:14.719Z,52.69
2023-05-12T23:02:17.155Z,52.68
2023-05-12T23:07:19.377Z,52.81
2023-05-12T23:12:21.626Z,53.09
2023-05-12T23:17:23.943Z,53.23
2023-05-12T23:22:26.455Z,53.18
2023-05-12T23:27:28.631Z,53.34
2023-05-12T23:32:31.579Z,53.18
2023-05-12T23:37:33.839Z,53.99
2023-05-12T23:42:36.112Z,54.51
2023-05-12T23:47:38.339Z,54.72
2023-05-12T23:52:40.568Z,54.83
2023-05-12T23:57:42.842Z,54.87
